sensor_id;sensor_type;location;lat;lon;timestamp;P1;durP1;ratioP1;P2;durP2;ratioP2
29206;SDS011;16247;50.840;4.382;2023-07-29T00:01:51;1.92;;;1.08;;
29206;SDS011;16247;50.840;4.382;2023-07-29T00:12:55;6.93;;;2.22;;
29206;SDS011;16247;50.840;4.382;2023-07-29T00:17:57;2.08;;;1.02;;
29206;SDS011;16247;50.840;4.382;2023-07-29T00:20:25;2.60;;;1.27;;
29206;SDS011;16247;50.840;4.382;2023-07-29T00:22:52;2.50;;;1.10;;
29206;SDS011;16247;50.840;4.382;2023-07-29T00:25:22;2.25;;;1.40;;
29206;SDS011;16247;50.840;4.382;2023-07-29T00:27:55;2.05;;;1.20;;
29206;SDS011;16247;50.840;4.382;2023-07-29T00:30:45;3.00;;;1.60;;
29206;SDS011;16247;50.840;4.382;2023-07-29T00:39:43;2.17;;;1.40;;
29206;SDS011;16247;50.840;4.382;2023-07-29T00:51:53;2.97;;;1.50;;
29206;SDS011;16247;50.840;4.382;2023-07-29T00:54:29;3.03;;;1.40;;
29206;SDS011;16247;50.840;4.382;2023-07-29T01:02:11;3.13;;;1.23;;
29206;SDS011;16247;50.840;4.382;2023-07-29T01:04:43;3.75;;;1.17;;
29206;SDS011;16247;50.840;4.382;2023-07-29T01:07:31;2.05;;;1.70;;
29206;SDS011;16247;50.840;4.382;2023-07-29T01:22:55;2.58;;;1.40;;
29206;SDS011;16247;50.840;4.382;2023-07-29T01:25:56;3.28;;;1.58;;
29206;SDS011;16247;50.840;4.382;2023-07-29T01:31:51;5.88;;;1.60;;
29206;SDS011;16247;50.840;4.382;2023-07-29T01:44:06;2.67;;;1.70;;
29206;SDS011;16247;50.840;4.382;2023-07-29T01:46:38;3.15;;;1.50;;
29206;SDS011;16247;50.840;4.382;2023-07-29T01:51:58;2.60;;;1.58;;
29206;SDS011;16247;50.840;4.382;2023-07-29T01:54:36;3.40;;;1.67;;
29206;SDS011;16247;50.840;4.382;2023-07-29T01:57:05;3.70;;;1.65;;
29206;SDS011;16247;50.840;4.382;2023-07-29T01:59:39;3.63;;;1.40;;
29206;SDS011;16247;50.840;4.382;2023-07-29T02:02:21;4.80;;;1.60;;
29206;SDS011;16247;50.840;4.382;2023-07-29T02:07:29;7.03;;;2.00;;
29206;SDS011;16247;50.840;4.382;2023-07-29T02:10:01;3.20;;;1.92;;
29206;SDS011;16247;50.840;4.382;2023-07-29T02:12:31;3.78;;;1.80;;
29206;SDS011;16247;50.840;4.382;2023-07-29T02:17:44;5.53;;;2.20;;
29206;SDS011;16247;50.840;4.382;2023-07-29T02:31:19;3.10;;;1.80;;
29206;SDS011;16247;50.840;4.382;2023-07-29T02:34:09;2.55;;;1.48;;
29206;SDS011;16247;50.840;4.382;2023-07-29T02:37:00;2.05;;;1.27;;
29206;SDS011;16247;50.840;4.382;2023-07-29T02:39:51;3.35;;;1.65;;
29206;SDS011;16247;50.840;4.382;2023-07-29T02:42:29;1.88;;;1.50;;
29206;SDS011;16247;50.840;4.382;2023-07-29T02:45:38;3.08;;;1.48;;
29206;SDS011;16247;50.840;4.382;2023-07-29T03:42:44;2.55;;;1.80;;
29206;SDS011;16247;50.840;4.382;2023-07-29T03:45:16;2.55;;;1.70;;
29206;SDS011;16247;50.840;4.382;2023-07-29T04:08:08;2.42;;;1.55;;
29206;SDS011;16247;50.840;4.382;2023-07-29T04:11:13;6.05;;;2.10;;
29206;SDS011;16247;50.840;4.382;2023-07-29T04:28:04;3.55;;;2.05;;
29206;SDS011;16247;50.840;4.382;2023-07-29T04:30:30;3.47;;;1.80;;
29206;SDS011;16247;50.840;4.382;2023-07-29T04:32:55;2.03;;;1.60;;
29206;SDS011;16247;50.840;4.382;2023-07-29T04:35:21;2.10;;;1.45;;
29206;SDS011;16247;50.840;4.382;2023-07-29T04:37:47;3.83;;;2.00;;
29206;SDS011;16247;50.840;4.382;2023-07-29T04:40:13;4.63;;;2.05;;
29206;SDS011;16247;50.840;4.382;2023-07-29T04:42:39;4.13;;;1.95;;
29206;SDS011;16247;50.840;4.382;2023-07-29T04:45:06;5.75;;;1.77;;
29206;SDS011;16247;50.840;4.382;2023-07-29T04:47:31;2.15;;;1.92;;
29206;SDS011;16247;50.840;4.382;2023-07-29T04:49:57;3.70;;;1.40;;
29206;SDS011;16247;50.840;4.382;2023-07-29T04:52:23;2.83;;;1.35;;
29206;SDS011;16247;50.840;4.382;2023-07-29T04:54:48;2.85;;;1.63;;
29206;SDS011;16247;50.840;4.382;2023-07-29T04:57:14;3.13;;;1.70;;
29206;SDS011;16247;50.840;4.382;2023-07-29T04:59:40;4.50;;;1.48;;
29206;SDS011;16247;50.840;4.382;2023-07-29T05:02:05;2.30;;;1.85;;
29206;SDS011;16247;50.840;4.382;2023-07-29T05:04:31;3.58;;;1.40;;
29206;SDS011;16247;50.840;4.382;2023-07-29T05:06:57;5.88;;;1.90;;
29206;SDS011;16247;50.840;4.382;2023-07-29T05:09:23;3.17;;;1.55;;
29206;SDS011;16247;50.840;4.382;2023-07-29T05:11:48;3.72;;;1.88;;
29206;SDS011;16247;50.840;4.382;2023-07-29T05:14:14;6.28;;;1.80;;
29206;SDS011;16247;50.840;4.382;2023-07-29T05:16:41;4.53;;;2.50;;
29206;SDS011;16247;50.840;4.382;2023-07-29T05:19:07;3.38;;;1.52;;
29206;SDS011;16247;50.840;4.382;2023-07-29T05:21:33;5.07;;;1.50;;
29206;SDS011;16247;50.840;4.382;2023-07-29T05:23:59;3.25;;;1.30;;
29206;SDS011;16247;50.840;4.382;2023-07-29T05:26:24;3.67;;;1.80;;
29206;SDS011;16247;50.840;4.382;2023-07-29T05:28:50;3.53;;;1.60;;
29206;SDS011;16247;50.840;4.382;2023-07-29T05:31:16;3.00;;;1.27;;
29206;SDS011;16247;50.840;4.382;2023-07-29T05:33:41;2.72;;;1.60;;
29206;SDS011;16247;50.840;4.382;2023-07-29T05:36:07;4.28;;;1.50;;
29206;SDS011;16247;50.840;4.382;2023-07-29T05:38:33;2.58;;;1.83;;
29206;SDS011;16247;50.840;4.382;2023-07-29T05:41:00;5.35;;;1.85;;
29206;SDS011;16247;50.840;4.382;2023-07-29T05:43:26;3.20;;;1.35;;
29206;SDS011;16247;50.840;4.382;2023-07-29T05:45:52;2.20;;;1.25;;
29206;SDS011;16247;50.840;4.382;2023-07-29T05:48:19;3.97;;;1.50;;
29206;SDS011;16247;50.840;4.382;2023-07-29T05:50:45;2.60;;;1.48;;
29206;SDS011;16247;50.840;4.382;2023-07-29T05:53:10;4.03;;;1.30;;
29206;SDS011;16247;50.840;4.382;2023-07-29T05:55:36;2.58;;;1.20;;
29206;SDS011;16247;50.840;4.382;2023-07-29T05:58:02;4.20;;;1.40;;
29206;SDS011;16247;50.840;4.382;2023-07-29T06:00:27;4.55;;;1.40;;
29206;SDS011;16247;50.840;4.382;2023-07-29T06:02:53;1.98;;;1.55;;
29206;SDS011;16247;50.840;4.382;2023-07-29T06:05:19;3.40;;;1.88;;
29206;SDS011;16247;50.840;4.382;2023-07-29T06:07:44;3.78;;;1.35;;
29206;SDS011;16247;50.840;4.382;2023-07-29T06:10:14;4.55;;;1.23;;
29206;SDS011;16247;50.840;4.382;2023-07-29T06:12:43;1.38;;;1.20;;
29206;SDS011;16247;50.840;4.382;2023-07-29T06:15:10;2.00;;;1.35;;
29206;SDS011;16247;50.840;4.382;2023-07-29T06:17:37;4.80;;;1.92;;
29206;SDS011;16247;50.840;4.382;2023-07-29T06:20:03;2.42;;;1.33;;
29206;SDS011;16247;50.840;4.382;2023-07-29T06:22:29;2.20;;;1.25;;
29206;SDS011;16247;50.840;4.382;2023-07-29T06:24:55;3.38;;;1.48;;
29206;SDS011;16247;50.840;4.382;2023-07-29T06:27:20;3.22;;;1.05;;
29206;SDS011;16247;50.840;4.382;2023-07-29T06:29:46;4.28;;;1.30;;
29206;SDS011;16247;50.840;4.382;2023-07-29T06:32:11;1.30;;;1.20;;
29206;SDS011;16247;50.840;4.382;2023-07-29T06:34:37;1.92;;;1.10;;
29206;SDS011;16247;50.840;4.382;2023-07-29T06:37:03;2.80;;;1.45;;
29206;SDS011;16247;50.840;4.382;2023-07-29T06:39:28;4.75;;;1.48;;
29206;SDS011;16247;50.840;4.382;2023-07-29T06:41:54;3.08;;;1.35;;
29206;SDS011;16247;50.840;4.382;2023-07-29T06:44:20;2.00;;;1.27;;
29206;SDS011;16247;50.840;4.382;2023-07-29T06:46:46;1.90;;;1.30;;
29206;SDS011;16247;50.840;4.382;2023-07-29T06:49:11;5.55;;;1.50;;
29206;SDS011;16247;50.840;4.382;2023-07-29T06:51:37;2.08;;;1.25;;
29206;SDS011;16247;50.840;4.382;2023-07-29T06:54:03;1.88;;;1.33;;
29206;SDS011;16247;50.840;4.382;2023-07-29T06:56:28;1.83;;;1.15;;
29206;SDS011;16247;50.840;4.382;2023-07-29T06:58:54;2.53;;;1.48;;
29206;SDS011;16247;50.840;4.382;2023-07-29T07:01:20;2.17;;;1.23;;
29206;SDS011;16247;50.840;4.382;2023-07-29T07:03:45;2.40;;;1.23;;
29206;SDS011;16247;50.840;4.382;2023-07-29T07:06:11;2.47;;;1.30;;
29206;SDS011;16247;50.840;4.382;2023-07-29T07:08:36;2.03;;;1.30;;
29206;SDS011;16247;50.840;4.382;2023-07-29T07:11:02;3.85;;;1.50;;
29206;SDS011;16247;50.840;4.382;2023-07-29T07:13:28;3.28;;;1.65;;
29206;SDS011;16247;50.840;4.382;2023-07-29T07:15:54;2.58;;;1.40;;
29206;SDS011;16247;50.840;4.382;2023-07-29T07:18:20;4.10;;;1.40;;
29206;SDS011;16247;50.840;4.382;2023-07-29T07:20:48;4.00;;;1.05;;
29206;SDS011;16247;50.840;4.382;2023-07-29T07:23:15;3.35;;;1.50;;
29206;SDS011;16247;50.840;4.382;2023-07-29T07:25:41;2.95;;;1.50;;
29206;SDS011;16247;50.840;4.382;2023-07-29T07:28:07;1.98;;;1.30;;
29206;SDS011;16247;50.840;4.382;2023-07-29T07:30:34;2.22;;;1.10;;
29206;SDS011;16247;50.840;4.382;2023-07-29T07:33:00;4.18;;;1.30;;
29206;SDS011;16247;50.840;4.382;2023-07-29T07:35:25;3.08;;;1.10;;
29206;SDS011;16247;50.840;4.382;2023-07-29T07:37:51;2.28;;;1.20;;
29206;SDS011;16247;50.840;4.382;2023-07-29T07:40:17;3.33;;;1.33;;
29206;SDS011;16247;50.840;4.382;2023-07-29T07:42:43;1.80;;;1.08;;
29206;SDS011;16247;50.840;4.382;2023-07-29T07:45:08;4.28;;;1.80;;
29206;SDS011;16247;50.840;4.382;2023-07-29T07:47:34;2.08;;;1.15;;
29206;SDS011;16247;50.840;4.382;2023-07-29T07:50:00;3.35;;;1.58;;
29206;SDS011;16247;50.840;4.382;2023-07-29T07:52:25;2.78;;;1.40;;
29206;SDS011;16247;50.840;4.382;2023-07-29T07:54:54;3.30;;;1.40;;
29206;SDS011;16247;50.840;4.382;2023-07-29T07:57:20;5.47;;;1.38;;
29206;SDS011;16247;50.840;4.382;2023-07-29T07:59:46;3.55;;;1.30;;
29206;SDS011;16247;50.840;4.382;2023-07-29T08:02:12;3.33;;;1.20;;
29206;SDS011;16247;50.840;4.382;2023-07-29T08:04:38;1.27;;;1.17;;
29206;SDS011;16247;50.840;4.382;2023-07-29T08:07:03;4.78;;;1.38;;
29206;SDS011;16247;50.840;4.382;2023-07-29T08:09:29;3.17;;;1.20;;
29206;SDS011;16247;50.840;4.382;2023-07-29T09:15:29;6.75;;;1.42;;
29206;SDS011;16247;50.840;4.382;2023-07-29T10:58:54;2.97;;;1.92;;
29206;SDS011;16247;50.840;4.382;2023-07-29T14:11:26;3.40;;;1.70;;
29206;SDS011;16247;50.840;4.382;2023-07-29T15:46:23;1.42;;;1.02;;
29206;SDS011;16247;50.840;4.382;2023-07-29T15:59:34;1.73;;;1.40;;
29206;SDS011;16247;50.840;4.382;2023-07-29T16:12:46;1.70;;;1.52;;
29206;SDS011;16247;50.840;4.382;2023-07-29T16:19:21;2.47;;;2.13;;
29206;SDS011;16247;50.840;4.382;2023-07-29T16:28:08;2.05;;;1.60;;
29206;SDS011;16247;50.840;4.382;2023-07-29T16:33:30;2.80;;;1.38;;
29206;SDS011;16247;50.840;4.382;2023-07-29T16:36:35;4.38;;;1.30;;
29206;SDS011;16247;50.840;4.382;2023-07-29T16:39:11;1.40;;;1.08;;
29206;SDS011;16247;50.840;4.382;2023-07-29T16:53:01;3.22;;;1.40;;
29206;SDS011;16247;50.840;4.382;2023-07-29T16:55:50;4.00;;;1.70;;
29206;SDS011;16247;50.840;4.382;2023-07-29T16:58:38;2.97;;;1.45;;
29206;SDS011;16247;50.840;4.382;2023-07-29T17:01:57;4.45;;;1.55;;
29206;SDS011;16247;50.840;4.382;2023-07-29T17:04:48;4.75;;;1.20;;
29206;SDS011;16247;50.840;4.382;2023-07-29T19:24:59;6.20;;;2.42;;
29206;SDS011;16247;50.840;4.382;2023-07-29T19:55:03;7.13;;;3.22;;
29206;SDS011;16247;50.840;4.382;2023-07-29T22:31:29;5.70;;;2.42;;
29206;SDS011;16247;50.840;4.382;2023-07-29T22:34:28;7.88;;;2.40;;
29206;SDS011;16247;50.840;4.382;2023-07-29T22:37:00;10.30;;;2.75;;
29206;SDS011;16247;50.840;4.382;2023-07-29T22:42:45;7.00;;;3.03;;
29206;SDS011;16247;50.840;4.382;2023-07-29T22:45:41;8.07;;;3.00;;
29206;SDS011;16247;50.840;4.382;2023-07-29T22:48:29;6.10;;;2.60;;
29206;SDS011;16247;50.840;4.382;2023-07-29T22:51:53;7.45;;;2.63;;
29206;SDS011;16247;50.840;4.382;2023-07-29T22:55:14;9.38;;;2.88;;
29206;SDS011;16247;50.840;4.382;2023-07-29T22:58:01;13.38;;;2.78;;
29206;SDS011;16247;50.840;4.382;2023-07-29T23:01:02;6.38;;;2.30;;
29206;SDS011;16247;50.840;4.382;2023-07-29T23:03:58;7.88;;;2.97;;
29206;SDS011;16247;50.840;4.382;2023-07-29T23:06:25;12.88;;;4.45;;
29206;SDS011;16247;50.840;4.382;2023-07-29T23:09:15;9.77;;;3.28;;
29206;SDS011;16247;50.840;4.382;2023-07-29T23:12:05;8.38;;;3.00;;
29206;SDS011;16247;50.840;4.382;2023-07-29T23:14:51;9.05;;;3.13;;
29206;SDS011;16247;50.840;4.382;2023-07-29T23:17:17;16.00;;;3.72;;
29206;SDS011;16247;50.840;4.382;2023-07-29T23:19:56;6.85;;;3.30;;
